Time;durP1;ratioP1;P1;durP2;ratioP2;P2;SDS_P1;SDS_P2;PMS_P1;PMS_P2;Temp;Humidity;BMP_temperature;BMP_pressure;BME280_temperature;BME280_humidity;BME280_pressure;Samples;Min_cycle;Max_cycle;Signal;HPM_P1;HPM_P2
2022/10/20 00:00:36;;;;;;;29.65;16.50;;;;;;;13.14;65.64;94391.84;5147651;27;20052;-79
2022/10/20 00:03:01;;;;;;;26.90;15.30;;;;;;;13.08;65.48;94408.38;5146646;27;20026;-80
2022/10/20 00:05:27;;;;;;;24.88;15.35;;;;;;;13.00;64.89;94401.91;5147449;27;20094;-80
2022/10/20 00:07:52;;;;;;;22.23;14.90;;;;;;;12.99;64.49;94395.78;5147525;27;20015;-80
2022/10/20 00:10:17;;;;;;;20.20;12.75;;;;;;;12.96;64.02;94409.78;5146366;27;20023;-80
2022/10/20 00:12:43;;;;;;;20.00;12.45;;;;;;;12.97;63.98;94397.22;5147312;27;20015;-80
2022/10/20 00:15:09;;;;;;;21.08;11.85;;;;;;;13.00;63.39;94400.00;5147397;27;20015;-80
2022/10/20 00:17:34;;;;;;;19.48;12.18;;;;;;;12.93;63.02;94405.06;5147176;27;20015;-80
2022/10/20 00:20:00;;;;;;;23.52;11.20;;;;;;;12.89;62.46;94404.13;5146202;27;20018;-80
2022/10/20 00:22:25;;;;;;;17.73;12.27;;;;;;;12.94;62.48;94398.59;5147161;27;20015;-80
2022/10/20 00:24:51;;;;;;;18.90;12.85;;;;;;;12.95;62.47;94405.53;5146072;27;20019;-81
2022/10/20 00:27:16;;;;;;;19.60;12.00;;;;;;;12.89;62.14;94409.47;5147232;27;20015;-81
2022/10/20 00:29:41;;;;;;;20.95;11.52;;;;;;;12.93;61.89;94402.38;5147120;27;20256;-80
2022/10/20 00:32:07;;;;;;;15.82;10.65;;;;;;;12.88;61.96;94415.13;5146768;27;20015;-80
2022/10/20 00:34:32;;;;;;;20.60;10.50;;;;;;;12.92;62.22;94411.50;5147270;27;20026;-80
2022/10/20 00:36:58;;;;;;;17.80;10.00;;;;;;;12.82;61.74;94404.59;5146976;27;20019;-80
2022/10/20 00:39:23;;;;;;;18.35;10.65;;;;;;;12.86;61.62;94394.03;5146931;27;20025;-80
2022/10/20 00:41:48;;;;;;;16.05;10.90;;;;;;;12.83;61.89;94402.69;5146733;27;20094;-80
2022/10/20 00:44:52;;;;;;;15.55;10.35;;;;;;;12.83;61.10;94392.00;5145467;27;20047;-80
2022/10/20 00:47:21;;;;;;;21.58;9.88;;;;;;;12.74;61.28;94385.84;5146835;27;20099;-81
2022/10/20 00:49:48;;;;;;;13.23;9.50;;;;;;;12.69;61.30;94367.28;5146776;27;20053;-81
2022/10/20 00:52:17;;;;;;;16.67;9.18;;;;;;;12.72;60.48;94372.00;5146571;27;20047;-81
2022/10/20 00:54:43;;;;;;;16.50;8.85;;;;;;;12.69;60.47;94376.09;5145292;27;20018;-81
2022/10/20 00:57:08;;;;;;;25.23;8.82;;;;;;;12.61;60.50;94374.97;5146386;27;20060;-81
2022/10/20 00:59:36;;;;;;;16.95;9.07;;;;;;;12.57;60.20;94374.03;5146677;27;20105;-82
2022/10/20 01:02:03;;;;;;;12.27;8.13;;;;;;;12.60;60.27;94376.09;5146381;27;20102;-81
2022/10/20 01:04:30;;;;;;;13.25;8.23;;;;;;;12.63;60.10;94388.03;5146550;27;20015;-81
2022/10/20 01:06:57;;;;;;;13.18;8.18;;;;;;;12.64;60.33;94384.28;5146405;27;20019;-81
2022/10/20 01:09:23;;;;;;;12.57;8.23;;;;;;;12.67;59.69;94377.50;5146153;27;20221;-81
2022/10/20 01:11:54;;;;;;;17.83;8.60;;;;;;;12.69;59.24;94391.34;5146370;27;20094;-81
2022/10/20 01:14:19;;;;;;;14.32;7.80;;;;;;;12.64;59.05;94381.59;5146324;27;20045;-81
2022/10/20 01:16:47;;;;;;;16.42;8.05;;;;;;;12.64;59.05;94379.72;5146270;27;20305;-81
2022/10/20 01:19:32;;;;;;;12.38;7.72;;;;;;;12.70;58.65;94385.69;5145925;27;20041;-80
2022/10/20 01:22:46;;;;;;;13.05;8.00;;;;;;;12.68;58.93;94384.41;5146219;27;20026;-81
2022/10/20 01:25:23;;;;;;;13.10;7.88;;;;;;;12.63;59.11;94383.47;5113878;27;20057;-81
2022/10/20 01:28:05;;;;;;;11.82;8.05;;;;;;;12.59;59.21;94382.53;5144775;27;20015;-80
2022/10/20 01:30:32;;;;;;;;;;;;;;;12.56;59.71;94387.72;5145600;27;20380;-81
2022/10/20 01:33:25;;;;;;;12.38;7.50;;;;;;;12.43;60.26;94390.19;5145955;27;20013;-81
2022/10/20 01:35:59;;;;;;;15.07;7.68;;;;;;;12.42;60.54;94393.19;5145768;27;20335;-81
2022/10/20 01:38:27;;;;;;;12.23;7.53;;;;;;;12.39;61.05;94386.56;5145585;27;20039;-82
2022/10/20 01:41:31;;;;;;;10.75;7.03;;;;;;;12.44;60.59;94380.31;5145686;27;20030;-81
2022/10/20 01:44:03;;;;;;;10.77;7.68;;;;;;;12.41;61.57;94386.25;5138751;27;20042;-82
2022/10/20 01:46:31;;;;;;;15.13;8.68;;;;;;;12.37;61.34;94382.63;5145610;27;20030;-81
2022/10/20 01:48:59;;;;;;;13.27;7.93;;;;;;;12.35;61.85;94387.50;5145622;27;20224;-81
2022/10/20 01:51:25;;;;;;;11.95;8.38;;;;;;;12.29;62.01;94384.19;5145468;27;20038;-81
2022/10/20 01:53:50;;;;;;;13.65;8.43;;;;;;;12.22;62.14;94381.97;5145479;27;20213;-81
2022/10/20 01:56:25;;;;;;;12.43;7.72;;;;;;;12.18;62.41;94389.03;5144995;27;20046;-82
2022/10/20 01:58:50;;;;;;;14.98;8.57;;;;;;;12.14;62.37;94380.06;5145182;27;20047;-81
2022/10/20 02:01:22;;;;;;;13.38;8.23;;;;;;;12.10;62.69;94394.34;5145335;27;20072;-82
2022/10/20 02:04:00;;;;;;;16.75;7.78;;;;;;;11.96;62.96;94397.91;5145229;27;20026;-81
2022/10/20 02:06:45;;;;;;;16.00;8.80;;;;;;;11.97;62.85;94401.38;5145079;27;20022;-82
2022/10/20 02:09:20;;;;;;;15.07;7.60;;;;;;;11.83;63.36;94399.56;5137590;27;20027;-82
2022/10/20 02:11:58;;;;;;;16.02;8.95;;;;;;;11.81;63.27;94401.75;5145012;27;20023;-81
2022/10/20 02:14:23;;;;;;;15.90;9.00;;;;;;;11.78;63.36;94413.03;5144878;27;20023;-82
2022/10/20 02:16:54;;;;;;;13.65;8.88;;;;;;;11.72;63.70;94416.16;5145095;27;20392;-80
2022/10/20 02:19:24;;;;;;;21.35;8.88;;;;;;;11.64;63.94;94413.13;5144975;27;20031;-79
2022/10/20 02:21:53;;;;;;;12.57;8.93;;;;;;;11.60;63.99;94412.16;5144785;27;20019;-79
2022/10/20 02:24:23;;;;;;;16.52;8.90;;;;;;;11.60;64.19;94422.03;5144705;27;20098;-79
2022/10/20 02:26:51;;;;;;;13.05;7.97;;;;;;;11.49;64.37;94415.41;5144778;27;20019;-80
2022/10/20 02:29:21;;;;;;;15.75;8.50;;;;;;;11.47;64.42;94415.69;5144718;27;20016;-80
2022/10/20 02:31:47;;;;;;;14.77;8.77;;;;;;;11.42;64.46;94411.28;5144684;27;20015;-80
2022/10/20 02:34:14;;;;;;;16.85;9.10;;;;;;;11.29;65.15;94406.78;5144543;27;20025;-80
2022/10/20 02:36:41;;;;;;;14.93;8.57;;;;;;;11.30;64.97;94412.91;5144596;27;20079;-80
2022/10/20 02:39:08;;;;;;;12.20;8.10;;;;;;;11.28;65.09;94415.88;5144489;27;20019;-80
2022/10/20 02:41:34;;;;;;;16.80;8.52;;;;;;;11.23;65.30;94418.66;5143502;27;20015;-80
2022/10/20 02:44:00;;;;;;;13.00;9.02;;;;;;;11.23;65.30;94424.00;5143592;27;20019;-80
2022/10/20 02:46:26;;;;;;;11.40;8.07;;;;;;;11.20;65.55;94417.41;5144445;27;20022;-80
2022/10/20 02:48:51;;;;;;;14.18;8.85;;;;;;;11.20;65.20;94424.63;5144464;27;20065;-80
2022/10/20 02:51:17;;;;;;;15.65;9.10;;;;;;;11.14;65.22;94426.59;5144181;27;20306;-80
2022/10/20 02:53:43;;;;;;;15.60;10.00;;;;;;;11.14;65.32;94425.81;5144462;27;20023;-80
2022/10/20 02:56:09;;;;;;;17.73;8.80;;;;;;;11.08;65.58;94433.16;5144269;27;20038;-80
2022/10/20 02:58:35;;;;;;;12.82;8.63;;;;;;;11.09;65.57;94429.38;5143136;27;20133;-79
2022/10/20 03:01:01;;;;;;;15.02;9.35;;;;;;;10.99;65.95;94438.41;5143251;27;20103;-80
2022/10/20 03:03:26;;;;;;;16.00;10.02;;;;;;;10.94;66.05;94441.19;5144127;27;20030;-80
2022/10/20 03:05:52;;;;;;;16.40;9.52;;;;;;;10.91;66.45;94433.81;5144175;27;20221;-80
2022/10/20 03:08:17;;;;;;;18.10;9.52;;;;;;;10.92;66.68;94432.69;5143659;27;20047;-80
2022/10/20 03:10:43;;;;;;;17.60;10.02;;;;;;;10.89;66.77;94432.50;5144198;27;20377;-80
2022/10/20 03:13:09;;;;;;;24.63;11.85;;;;;;;10.86;66.85;94441.91;5144132;27;20098;-80
2022/10/20 03:15:35;;;;;;;14.55;8.80;;;;;;;10.86;66.95;94441.91;5144112;27;20019;-80
2022/10/20 03:18:00;;;;;;;18.58;10.38;;;;;;;10.88;67.06;94442.38;5144105;27;20057;-80
2022/10/20 03:20:26;;;;;;;17.88;10.05;;;;;;;10.82;67.37;94440.91;5143915;27;20254;-80
2022/10/20 03:22:51;;;;;;;15.18;9.63;;;;;;;10.76;67.38;94453.56;5144075;27;20019;-80
2022/10/20 03:25:17;;;;;;;16.10;9.40;;;;;;;10.79;67.52;94441.53;5143998;27;20023;-80
2022/10/20 03:27:42;;;;;;;15.38;9.82;;;;;;;10.74;67.48;94446.97;5143741;27;20301;-81
2022/10/20 03:30:08;;;;;;;19.15;9.82;;;;;;;10.74;67.63;94449.63;5143849;27;20023;-81
2022/10/20 03:32:33;;;;;;;14.98;9.52;;;;;;;10.68;67.87;94451.59;5144072;27;20034;-80
2022/10/20 03:34:59;;;;;;;16.45;9.32;;;;;;;10.71;67.92;94456.34;5143889;27;20023;-80
2022/10/20 03:37:25;;;;;;;18.33;9.52;;;;;;;10.70;67.72;94459.31;5143704;27;20063;-80
2022/10/20 03:39:50;;;;;;;13.43;9.15;;;;;;;10.74;67.85;94454.97;5143773;27;20026;-80
2022/10/20 03:42:16;;;;;;;16.13;9.63;;;;;;;10.73;67.92;94469.41;5143891;27;20030;-81
2022/10/20 03:44:43;;;;;;;20.38;9.23;;;;;;;10.72;68.04;94463.25;5143716;27;20023;-81
2022/10/20 03:47:10;;;;;;;20.00;9.75;;;;;;;10.64;68.45;94469.28;5143858;27;20086;-80
2022/10/20 03:49:36;;;;;;;16.35;9.35;;;;;;;10.62;68.60;94466.13;5142530;28;20090;-80
2022/10/20 03:52:02;;;;;;;15.20;9.73;;;;;;;10.58;68.77;94460.63;5143887;27;20198;-79
2022/10/20 03:54:28;;;;;;;16.75;9.07;;;;;;;10.57;68.77;94475.03;5143523;27;20053;-80
2022/10/20 03:56:53;;;;;;;14.35;8.93;;;;;;;10.51;69.13;94470.88;5143588;27;20063;-80
2022/10/20 03:59:19;;;;;;;13.68;9.18;;;;;;;10.57;69.14;94476.91;5143726;27;20019;-80
2022/10/20 04:01:45;;;;;;;17.38;8.80;;;;;;;10.50;69.31;94484.50;5143626;27;20091;-80
2022/10/20 04:04:11;;;;;;;13.75;8.77;;;;;;;10.50;69.39;94471.97;5143381;27;20349;-81
2022/10/20 04:06:37;;;;;;;16.02;9.35;;;;;;;10.53;69.40;94473.25;5143676;27;20052;-81
2022/10/20 04:09:03;;;;;;;16.70;8.38;;;;;;;10.52;69.46;94471.66;5143684;27;20019;-81
2022/10/20 04:11:30;;;;;;;12.90;8.55;;;;;;;10.49;69.43;94464.28;5143519;27;20046;-81
2022/10/20 04:13:55;;;;;;;15.35;8.65;;;;;;;10.52;69.10;94464.47;5143594;27;20336;-81
2022/10/20 04:16:20;;;;;;;16.70;8.40;;;;;;;10.50;68.89;94471.97;5143526;27;20019;-81
2022/10/20 04:18:46;;;;;;;12.63;8.35;;;;;;;10.49;68.59;94469.63;5145334;27;20023;-81
2022/10/20 04:21:12;;;;;;;14.07;7.88;;;;;;;10.46;68.63;94468.31;5147235;27;20308;-81
2022/10/20 04:23:37;;;;;;;14.13;7.10;;;;;;;10.48;68.68;94463.47;5147349;27;20325;-80
2022/10/20 04:26:14;;;;;;;17.25;8.40;;;;;;;10.40;69.25;94470.31;5146569;27;20339;-79
2022/10/20 04:28:40;;;;;;;16.90;8.48;;;;;;;10.31;69.56;94465.97;5147571;27;20022;-79
2022/10/20 04:31:06;;;;;;;14.18;8.27;;;;;;;10.31;69.98;94473.94;5147315;27;20023;-80
2022/10/20 04:33:32;;;;;;;15.77;8.30;;;;;;;10.25;69.95;94471.34;5148013;27;20255;-80
2022/10/20 04:36:04;;;;;;;16.10;8.48;;;;;;;10.23;70.17;94476.16;5147002;27;20090;-81
2022/10/20 04:38:31;;;;;;;13.90;7.45;;;;;;;10.21;70.21;94470.34;5147076;27;20030;-81
2022/10/20 04:40:58;;;;;;;14.68;8.13;;;;;;;10.24;70.06;94475.09;5147091;27;20106;-81
2022/10/20 04:43:23;;;;;;;14.70;7.95;;;;;;;10.24;69.86;94469.00;5146784;27;20199;-81
2022/10/20 04:45:49;;;;;;;12.60;7.72;;;;;;;10.28;69.53;94475.31;5146191;27;20019;-80
2022/10/20 04:48:15;;;;;;;13.30;7.07;;;;;;;10.18;69.49;94481.59;5145072;27;20215;-81
2022/10/20 04:50:41;;;;;;;13.07;8.40;;;;;;;10.14;69.87;94477.19;5143887;27;20309;-79
2022/10/20 04:53:08;;;;;;;12.30;8.02;;;;;;;10.19;69.75;94495.72;5146314;27;20030;-80
2022/10/20 04:55:34;;;;;;;14.85;7.45;;;;;;;10.14;69.67;94491.28;5146389;27;20043;-80
2022/10/20 04:58:00;;;;;;;11.27;7.43;;;;;;;10.18;69.63;94491.47;5146685;27;20273;-80
2022/10/20 05:00:25;;;;;;;19.92;7.97;;;;;;;10.22;69.39;94498.59;5146514;27;20027;-81
2022/10/20 05:02:51;;;;;;;11.68;6.85;;;;;;;10.21;68.85;94497.00;5146201;27;20043;-80
2022/10/20 05:05:16;;;;;;;14.38;7.00;;;;;;;10.22;68.78;94503.91;5146584;27;20023;-81
2022/10/20 05:07:42;;;;;;;12.75;7.55;;;;;;;10.28;68.52;94507.28;5146345;27;20216;-81
2022/10/20 05:10:07;;;;;;;11.52;6.50;;;;;;;10.31;68.49;94511.25;5146290;27;20023;-81
2022/10/20 05:12:33;;;;;;;15.10;7.50;;;;;;;10.34;68.47;94510.66;5146497;27;20030;-81
2022/10/20 05:14:58;;;;;;;12.35;6.57;;;;;;;10.33;68.71;94514.41;5144935;27;20254;-81
2022/10/20 05:17:24;;;;;;;14.55;7.90;;;;;;;10.41;68.71;94511.06;5146235;27;20031;-81
2022/10/20 05:19:50;;;;;;;15.90;8.20;;;;;;;10.45;68.20;94517.38;5145957;27;20309;-81
2022/10/20 05:22:15;;;;;;;14.93;7.20;;;;;;;10.49;68.02;94521.03;5146319;27;20264;-82
2022/10/20 05:24:40;;;;;;;10.90;6.40;;;;;;;10.51;67.97;94513.53;5146112;27;20071;-81
2022/10/20 05:27:06;;;;;;;9.27;7.05;;;;;;;10.53;67.74;94524.69;5145813;27;20042;-81
2022/10/20 05:29:31;;;;;;;11.48;6.28;;;;;;;10.56;67.59;94523.28;5145420;27;20062;-81
2022/10/20 05:31:57;;;;;;;13.88;6.97;;;;;;;10.56;67.76;94532.09;5145872;27;20030;-80
2022/10/20 05:34:22;;;;;;;12.45;6.65;;;;;;;10.58;67.60;94543.25;5145798;27;20039;-80
2022/10/20 05:36:48;;;;;;;13.55;7.30;;;;;;;10.60;68.02;94543.75;5145543;27;20038;-79
2022/10/20 05:39:13;;;;;;;11.45;6.78;;;;;;;10.58;68.01;94553.91;5145468;27;20099;-80
2022/10/20 05:41:39;;;;;;;12.00;7.57;;;;;;;10.58;68.28;94553.91;5145627;27;20011;-80
2022/10/20 05:44:10;;;;;;;11.23;7.35;;;;;;;10.55;68.92;94553.72;5145579;27;20015;-80
2022/10/20 05:46:39;;;;;;;17.85;7.97;;;;;;;10.53;69.16;94561.22;5145624;27;20266;-80
2022/10/20 05:49:06;;;;;;;12.25;6.80;;;;;;;10.55;68.81;94565.16;5145493;27;20254;-80
2022/10/20 05:51:34;;;;;;;15.32;8.13;;;;;;;10.55;69.15;94583.03;5145256;27;20041;-81
2022/10/20 05:54:01;;;;;;;12.50;8.50;;;;;;;10.60;69.23;94578.41;5145635;27;20362;-80
2022/10/20 05:56:28;;;;;;;13.18;8.50;;;;;;;10.62;69.39;94588.75;5145030;27;20039;-80
2022/10/20 05:58:54;;;;;;;12.60;7.78;;;;;;;10.66;69.17;94594.28;5144980;27;20016;-75
2022/10/20 06:01:23;;;;;;;17.98;8.65;;;;;;;10.75;69.56;94588.00;5145168;27;20015;-76
2022/10/20 06:03:56;;;;;;;12.70;7.78;;;;;;;10.83;69.82;94591.84;5145080;27;20370;-74
2022/10/20 06:06:25;;;;;;;15.73;9.00;;;;;;;10.75;70.05;94606.66;5144853;27;20038;-75
2022/10/20 06:08:52;;;;;;;19.92;11.70;;;;;;;10.72;70.27;94601.13;5144922;27;20018;-75
2022/10/20 06:11:18;;;;;;;25.50;12.20;;;;;;;10.72;70.43;94601.91;5144908;27;20019;-75
2022/10/20 06:13:43;;;;;;;17.85;9.23;;;;;;;10.75;70.50;94617.31;5144957;27;20027;-75
2022/10/20 06:16:14;;;;;;;16.23;9.65;;;;;;;10.79;69.70;94609.53;5144919;27;20045;-75
2022/10/20 06:18:42;;;;;;;15.43;9.23;;;;;;;10.71;70.12;94604.88;5143657;27;20060;-80
2022/10/20 06:21:23;;;;;;;11.23;8.38;;;;;;;10.74;70.32;94620.28;5143891;27;20015;-78
2022/10/20 06:23:49;;;;;;;21.08;9.32;;;;;;;10.80;70.09;94619.88;5144875;27;20304;-78
2022/10/20 06:26:22;;;;;;;15.02;8.82;;;;;;;10.85;69.61;94624.34;5144763;27;20023;-78
2022/10/20 06:28:51;;;;;;;12.68;9.02;;;;;;;10.87;69.22;94632.84;5144855;27;20042;-78
2022/10/20 06:31:22;;;;;;;14.50;8.07;;;;;;;10.74;69.81;94622.94;5144921;27;20102;-78
2022/10/20 06:33:49;;;;;;;12.15;8.07;;;;;;;10.80;69.75;94622.53;5144528;27;20088;-78
2022/10/20 06:36:15;;;;;;;13.88;8.45;;;;;;;10.76;69.63;94618.09;5144718;27;20027;-78
2022/10/20 06:38:41;;;;;;;15.82;8.35;;;;;;;10.76;69.74;94621.56;5144641;27;20023;-78
2022/10/20 06:41:11;;;;;;;13.05;8.38;;;;;;;10.81;69.56;94624.13;5144191;27;20112;-78
2022/10/20 06:43:37;;;;;;;13.15;8.70;;;;;;;10.81;69.57;94623.34;5144338;27;20128;-79
2022/10/20 06:46:04;;;;;;;13.80;8.90;;;;;;;10.94;69.48;94635.88;5144670;27;20218;-78
2022/10/20 06:48:30;;;;;;;16.83;8.98;;;;;;;11.07;69.13;94631.63;5144713;27;20056;-78
2022/10/20 06:51:04;;;;;;;16.77;8.60;;;;;;;11.10;68.92;94635.59;5144106;27;20090;-77
2022/10/20 06:53:31;;;;;;;14.18;9.20;;;;;;;11.19;69.25;94636.47;5144637;27;20038;-77
2022/10/20 06:55:56;;;;;;;15.50;8.90;;;;;;;11.32;68.87;94651.72;5144161;27;20038;-77
2022/10/20 06:58:22;;;;;;;13.80;9.07;;;;;;;11.37;68.25;94642.78;5144246;27;20383;-77
2022/10/20 07:00:56;;;;;;;13.27;8.65;;;;;;;11.36;68.38;94641.22;5144448;27;20019;-77
2022/10/20 07:03:21;;;;;;;13.18;8.68;;;;;;;11.44;68.25;94643.97;5144321;27;20042;-77
2022/10/20 07:05:47;;;;;;;16.73;8.90;;;;;;;11.58;67.72;94635.16;5144199;27;20263;-77
2022/10/20 07:08:12;;;;;;;13.30;8.75;;;;;;;11.67;66.69;94657.38;5143659;27;20041;-76
2022/10/20 07:10:38;;;;;;;12.30;8.45;;;;;;;11.63;66.76;94645.72;5142917;27;20083;-76
2022/10/20 07:13:03;;;;;;;16.05;8.48;;;;;;;11.66;66.98;94645.13;5144240;27;20298;-76
2022/10/20 07:15:29;;;;;;;20.27;8.77;;;;;;;11.80;66.38;94653.09;5144098;27;20026;-77
2022/10/20 07:17:54;;;;;;;11.73;8.00;;;;;;;11.95;66.00;94652.03;5143477;27;20232;-76
2022/10/20 07:20:19;;;;;;;16.02;9.15;;;;;;;11.88;66.05;94651.59;5144133;27;20019;-76
2022/10/20 07:22:45;;;;;;;14.38;8.80;;;;;;;11.84;65.89;94654.06;5144017;27;20019;-75
2022/10/20 07:25:10;;;;;;;19.67;9.18;;;;;;;11.79;65.98;94657.66;5144074;27;20305;-75
2022/10/20 07:27:35;;;;;;;14.00;8.38;;;;;;;11.78;66.17;94641.94;5144040;27;20309;-75
2022/10/20 07:30:01;;;;;;;16.20;9.05;;;;;;;11.77;66.07;94653.72;5144189;27;20019;-76
2022/10/20 07:32:26;;;;;;;19.02;9.40;;;;;;;11.95;65.92;94655.47;5143818;27;20066;-75
2022/10/20 07:34:52;;;;;;;17.35;9.43;;;;;;;12.06;64.57;94653.34;5143720;27;20047;-75
2022/10/20 07:37:18;;;;;;;10.70;7.57;;;;;;;12.07;63.90;94654.13;5143590;27;20336;-77
2022/10/20 07:39:43;;;;;;;16.13;7.97;;;;;;;12.16;63.64;94652.34;5143865;27;20023;-76
2022/10/20 07:42:09;;;;;;;14.40;8.15;;;;;;;12.15;64.18;94656.91;5143746;27;20041;-75
2022/10/20 07:44:35;;;;;;;16.67;9.05;;;;;;;12.28;63.92;94649.13;5143883;27;20019;-76
2022/10/20 07:47:00;;;;;;;14.30;8.27;;;;;;;12.38;63.32;94654.22;5143921;28;20305;-75
2022/10/20 07:49:25;;;;;;;12.85;7.90;;;;;;;12.39;62.52;94643.19;5143793;27;20043;-75
2022/10/20 07:51:51;;;;;;;15.13;8.48;;;;;;;12.34;62.35;94650.56;5145194;27;20221;-75
2022/10/20 07:54:16;;;;;;;11.23;7.50;;;;;;;12.27;62.13;94648.31;5147337;27;20042;-75
2022/10/20 07:56:42;;;;;;;12.32;7.38;;;;;;;12.30;62.51;94641.59;5147676;27;20035;-75
2022/10/20 07:59:10;;;;;;;15.30;7.45;;;;;;;12.26;62.18;94644.06;5147742;27;20019;-74
2022/10/20 08:01:35;;;;;;;13.52;7.85;;;;;;;12.33;62.02;94646.31;5147701;27;20015;-75
2022/10/20 08:04:01;;;;;;;25.52;8.95;;;;;;;12.38;61.14;94649.66;5147505;27;20333;-76
2022/10/20 08:06:27;;;;;;;12.10;7.63;;;;;;;12.33;61.33;94643.63;5147684;27;20057;-76
2022/10/20 08:08:53;;;;;;;12.98;7.70;;;;;;;12.32;60.95;94644.75;5147536;27;20057;-74
2022/10/20 08:11:19;;;;;;;11.38;7.38;;;;;;;12.44;60.56;94642.31;5147520;27;20015;-75
2022/10/20 08:13:44;;;;;;;13.20;7.85;;;;;;;12.42;60.72;94647.16;5147195;27;20204;-76
2022/10/20 08:16:11;;;;;;;17.25;7.63;;;;;;;12.47;60.89;94641.69;5147392;27;20023;-74
2022/10/20 08:18:37;;;;;;;10.43;6.93;;;;;;;12.43;60.16;94646.84;5147201;27;20038;-75
2022/10/20 08:21:08;;;;;;;10.02;6.88;;;;;;;12.50;59.29;94651.00;5147288;27;20023;-76
2022/10/20 08:23:37;;;;;;;11.27;7.10;;;;;;;12.48;59.69;94648.63;5147595;27;20267;-76
2022/10/20 08:26:03;;;;;;;9.73;6.80;;;;;;;12.56;59.82;94637.19;5147224;27;20280;-78
2022/10/20 08:28:28;;;;;;;10.30;6.45;;;;;;;12.61;58.77;94629.03;5147142;27;20019;-76
2022/10/20 08:30:53;;;;;;;10.20;6.07;;;;;;;12.64;58.33;94630.31;5147127;27;20336;-77
2022/10/20 08:33:19;;;;;;;13.13;6.70;;;;;;;12.68;59.03;94633.16;5146866;27;20023;-77
2022/10/20 08:35:44;;;;;;;9.75;6.32;;;;;;;12.64;58.58;94631.09;5146740;27;20019;-77
2022/10/20 08:38:10;;;;;;;11.23;6.63;;;;;;;12.70;57.94;94637.13;5146983;27;20313;-77
2022/10/20 08:40:39;;;;;;;11.75;6.25;;;;;;;12.57;58.13;94635.28;5146886;27;20135;-77
2022/10/20 08:43:06;;;;;;;15.73;6.63;;;;;;;12.65;57.87;94646.03;5146741;27;20030;-77
2022/10/20 08:45:33;;;;;;;15.85;5.82;;;;;;;12.75;57.26;94633.50;5146734;27;20095;-77
2022/10/20 08:47:58;;;;;;;11.95;5.50;;;;;;;12.76;57.58;94627.84;5146875;27;20019;-77
2022/10/20 08:50:27;;;;;;;10.30;5.65;;;;;;;12.94;56.26;94630.59;5146808;27;20030;-75
2022/10/20 08:52:59;;;;;;;14.88;4.80;;;;;;;12.96;56.01;94626.50;5146932;27;20076;-76
2022/10/20 08:55:24;;;;;;;;;;;;;;;13.00;55.79;94624.78;5147272;27;20031;-76
2022/10/20 08:57:50;;;;;;;9.13;4.88;;;;;;;12.91;55.66;94615.97;5146405;27;19939;-77
2022/10/20 09:00:18;;;;;;;11.38;5.30;;;;;;;13.00;55.09;94618.66;5146536;27;20023;-77
2022/10/20 09:02:45;;;;;;;7.03;4.68;;;;;;;13.14;54.41;94629.25;5146388;27;20042;-76
2022/10/20 09:05:13;;;;;;;8.00;4.57;;;;;;;13.16;53.58;94613.69;5145291;27;20037;-77
2022/10/20 09:07:39;;;;;;;7.35;4.43;;;;;;;13.25;53.62;94627.88;5146527;27;20220;-77
2022/10/20 09:10:32;;;;;;;9.63;4.50;;;;;;;13.34;54.06;94625.25;5146235;27;20181;-77
2022/10/20 09:12:59;;;;;;;11.77;5.03;;;;;;;13.53;53.47;94628.44;5146274;27;20030;-76
2022/10/20 09:15:26;;;;;;;8.80;4.47;;;;;;;13.56;52.08;94635.06;5145996;27;20019;-76
2022/10/20 09:17:58;;;;;;;10.40;4.97;;;;;;;13.53;52.28;94638.38;5145924;27;20023;-76
2022/10/20 09:20:31;;;;;;;7.53;4.40;;;;;;;13.59;50.98;94647.81;5146195;27;20023;-77
2022/10/20 09:22:56;;;;;;;6.43;4.00;;;;;;;13.52;50.68;94642.16;5145938;27;20090;-76
2022/10/20 09:25:26;;;;;;;8.88;4.00;;;;;;;13.56;51.14;94641.22;5145846;27;20365;-77
2022/10/20 09:27:51;;;;;;;9.35;4.03;;;;;;;13.58;51.13;94649.72;5145729;27;20015;-76
2022/10/20 09:30:19;;;;;;;8.23;4.00;;;;;;;13.55;50.63;94639.63;5145670;27;20060;-76
2022/10/20 09:32:45;;;;;;;12.70;3.75;;;;;;;13.63;49.90;94643.41;5145965;27;20311;-77
2022/10/20 09:35:19;;;;;;;8.30;3.95;;;;;;;13.73;49.02;94628.94;5145716;27;20098;-78
2022/10/20 09:37:51;;;;;;;8.38;3.40;;;;;;;13.79;49.41;94641.09;5145347;27;20332;-77
2022/10/20 09:40:18;;;;;;;9.43;3.78;;;;;;;13.96;49.67;94634.94;5145728;27;20019;-77
2022/10/20 09:43:09;;;;;;;10.40;3.85;;;;;;;13.92;48.26;94626.75;5145565;27;20019;-78
2022/10/20 09:45:46;;;;;;;6.70;3.72;;;;;;;13.86;48.11;94622.66;5139864;27;20027;-77
2022/10/20 09:48:23;;;;;;;9.88;2.83;;;;;;;13.91;47.77;94619.81;5145303;27;20025;-78
2022/10/20 09:50:54;;;;;;;9.50;3.90;;;;;;;13.97;48.00;94618.56;5145924;27;20047;-77
2022/10/20 09:53:25;;;;;;;6.85;3.38;;;;;;;13.99;47.46;94620.94;5144602;27;20031;-78
2022/10/20 09:55:51;;;;;;;5.07;2.83;;;;;;;14.06;46.86;94618.53;5145539;27;20051;-78
2022/10/20 09:58:23;;;;;;;5.03;2.53;;;;;;;14.10;45.69;94624.84;5145044;27;20072;-79
2022/10/20 10:01:06;;;;;;;5.53;3.22;;;;;;;14.04;46.08;94616.19;5145063;27;20019;-77
2022/10/20 10:03:46;;;;;;;5.97;3.42;;;;;;;14.10;46.42;94610.66;5145262;27;20026;-76
2022/10/20 10:06:27;;;;;;;5.93;2.92;;;;;;;14.17;45.96;94617.13;5145064;27;20202;-79
2022/10/20 10:08:54;;;;;;;7.63;3.40;;;;;;;14.17;45.70;94614.44;5145086;27;20030;-79
2022/10/20 10:11:22;;;;;;;6.72;3.35;;;;;;;14.21;45.82;94602.00;5144845;27;20300;-80
2022/10/20 10:13:50;;;;;;;6.68;3.58;;;;;;;14.23;45.81;94605.13;5144921;27;20090;-79
2022/10/20 10:16:19;;;;;;;6.32;3.60;;;;;;;14.35;44.56;94604.50;5144758;27;20277;-79
2022/10/20 10:19:18;;;;;;;5.55;2.50;;;;;;;14.41;44.31;94597.06;5144689;27;20034;-80
2022/10/20 10:21:59;;;;;;;9.63;6.55;;;;;;;14.41;45.36;94587.13;5136599;27;20083;-79
2022/10/20 10:24:42;;;;;;;18.77;3.53;;;;;;;14.52;45.01;94597.53;5145120;27;20031;-82
2022/10/20 10:27:24;;;;;;;5.85;2.80;;;;;;;14.50;44.78;94597.84;5143057;27;20023;-81
2022/10/20 10:29:49;;;;;;;9.10;2.97;;;;;;;14.45;44.30;94587.28;5144106;27;20181;-81
2022/10/20 10:32:16;;;;;;;5.30;3.03;;;;;;;14.57;44.49;94597.38;5144725;27;20264;-81
2022/10/20 10:35:02;;;;;;;11.80;2.92;;;;;;;14.69;44.04;94596.69;5144898;27;20022;-81
2022/10/20 10:37:29;;;;;;;4.47;2.80;;;;;;;14.76;44.25;94594.31;5144338;27;20266;-81
2022/10/20 10:39:54;;;;;;;7.57;3.00;;;;;;;14.84;44.48;94601.56;5144394;27;20034;-80
2022/10/20 10:42:54;;;;;;;6.47;2.80;;;;;;;14.88;43.85;94594.44;5144528;27;20018;-77
2022/10/20 10:45:28;;;;;;;5.68;3.28;;;;;;;14.87;44.08;94586.69;5144454;27;20023;-76
2022/10/20 10:48:44;;;;;;;7.07;3.33;;;;;;;14.91;43.54;94577.69;5144278;27;20037;-75
2022/10/20 10:51:26;;;;;;;8.23;3.17;;;;;;;15.07;43.84;94593.25;5126563;27;20068;-75
2022/10/20 10:54:10;;;;;;;4.40;3.10;;;;;;;15.06;42.10;94584.38;5144337;27;20357;-75
2022/10/20 10:56:50;;;;;;;12.05;3.22;;;;;;;15.09;42.53;94588.34;5144017;27;20360;-75
2022/10/20 10:59:35;;;;;;;4.57;2.60;;;;;;;15.07;41.17;94580.59;5144308;27;20027;-77
2022/10/20 11:02:15;;;;;;;7.50;3.13;;;;;;;14.99;41.88;94579.53;5144384;27;20015;-77
2022/10/20 11:04:50;;;;;;;7.50;3.03;;;;;;;14.98;41.71;94572.59;5144215;27;20067;-76
2022/10/20 11:07:30;;;;;;;6.78;2.70;;;;;;;15.02;42.46;94567.34;5144045;27;20019;-74
2022/10/20 11:10:19;;;;;;;6.07;2.90;;;;;;;15.03;41.99;94575.09;5144101;27;20034;-74
2022/10/20 11:13:22;;;;;;;10.25;3.63;;;;;;;14.96;42.39;94566.78;5144264;27;20027;-77
2022/10/20 11:15:57;;;;;;;;;;;;;;;15.03;43.21;94568.94;5144555;27;20027;-77
2022/10/20 11:18:33;;;;;;;5.57;3.05;;;;;;;15.04;42.96;94554.41;5143987;27;19914;-78
2022/10/20 11:21:07;;;;;;;5.82;3.35;;;;;;;15.16;42.73;94556.38;5144144;27;20263;-76
2022/10/20 11:23:51;;;;;;;6.05;2.95;;;;;;;15.24;42.46;94556.38;5144206;27;20026;-77
2022/10/20 11:26:25;;;;;;;5.95;3.13;;;;;;;15.37;41.65;94553.75;5143927;27;20317;-78
2022/10/20 11:28:54;;;;;;;6.35;3.15;;;;;;;15.45;41.88;94542.94;5146384;27;20064;-75
2022/10/20 11:31:23;;;;;;;7.15;2.97;;;;;;;15.52;41.33;94552.38;5147832;27;20049;-75
2022/10/20 11:33:56;;;;;;;5.93;3.20;;;;;;;15.62;41.25;94546.63;5148184;27;20278;-75
2022/10/20 11:36:24;;;;;;;5.60;3.03;;;;;;;15.62;40.79;94541.25;5148082;27;20030;-75